createdAt,value
2018-05-14T00:00:23.596Z,16.84
2018-05-14T00:02:01.735Z,16.77
2018-05-14T00:03:39.801Z,16.71
2018-05-14T00:05:18.918Z,16.67
2018-05-14T00:06:57.076Z,16.60
2018-05-14T00:08:33.018Z,16.56
2018-05-14T00:10:11.135Z,16.52
2018-05-14T00:11:49.246Z,16.49
2018-05-14T00:13:29.462Z,16.44
2018-05-14T00:15:06.849Z,16.45
2018-05-14T00:16:45.043Z,16.42
2018-05-14T00:18:22.044Z,16.39
2018-05-14T00:20:01.908Z,16.40
2018-05-14T00:21:40.707Z,16.53
2018-05-14T00:23:18.556Z,16.45
2018-05-14T00:24:55.136Z,16.51
2018-05-14T00:26:32.353Z,16.54
2018-05-14T00:28:10.136Z,16.56
2018-05-14T00:29:49.422Z,16.62
2018-05-14T00:31:27.725Z,16.65
2018-05-14T00:33:06.163Z,16.67
2018-05-14T00:36:25.435Z,16.47
2018-05-14T00:38:06.221Z,16.34
2018-05-14T00:39:47.205Z,16.24
2018-05-14T00:41:25.680Z,16.31
2018-05-14T00:43:03.163Z,16.28
2018-05-14T00:44:40.859Z,16.36
2018-05-14T00:46:18.606Z,16.36
2018-05-14T00:47:59.475Z,16.42
2018-05-14T00:49:36.822Z,16.39
2018-05-14T00:51:15.091Z,16.37
2018-05-14T00:52:53.009Z,16.41
2018-05-14T00:54:31.899Z,16.31
2018-05-14T00:56:10.268Z,16.27
2018-05-14T00:57:47.345Z,16.22
2018-05-14T00:59:26.668Z,16.22
2018-05-14T01:01:05.031Z,16.18
2018-05-14T01:02:44.213Z,16.26
2018-05-14T01:04:21.338Z,16.30
2018-05-14T01:06:00.555Z,16.26
2018-05-14T01:07:37.296Z,16.23
2018-05-14T01:09:16.908Z,16.22
2018-05-14T01:10:53.632Z,16.14
2018-05-14T01:12:30.246Z,16.19
2018-05-14T01:14:10.207Z,16.11
2018-05-14T01:15:48.584Z,15.96
2018-05-14T01:17:27.011Z,15.90
2018-05-14T01:19:05.710Z,15.92
2018-05-14T01:20:42.760Z,15.94
2018-05-14T01:22:19.433Z,16.05
2018-05-14T01:23:57.707Z,16.08
2018-05-14T01:25:36.034Z,16.09
2018-05-14T01:27:15.544Z,16.15
2018-05-14T01:28:52.520Z,16.18
2018-05-14T01:30:30.660Z,16.15
2018-05-14T01:32:09.109Z,16.13
2018-05-14T01:33:47.712Z,16.21
2018-05-14T01:35:25.627Z,16.10
2018-05-14T01:37:04.817Z,15.99
2018-05-14T01:38:47.784Z,15.88
2018-05-14T01:40:25.719Z,15.87
2018-05-14T01:42:05.362Z,15.87
2018-05-14T01:43:45.269Z,15.91
2018-05-14T01:45:22.486Z,15.88
2018-05-14T01:47:00.494Z,15.89
2018-05-14T01:48:39.058Z,15.85
2018-05-14T01:50:18.102Z,15.85
2018-05-14T01:51:56.096Z,15.81
2018-05-14T01:53:33.061Z,15.78
2018-05-14T01:55:11.777Z,15.74
2018-05-14T01:56:50.461Z,15.70
2018-05-14T01:58:27.848Z,15.61
2018-05-14T02:00:06.953Z,15.75
2018-05-14T02:01:46.928Z,15.70
2018-05-14T02:03:24.688Z,15.61
2018-05-14T02:05:02.950Z,15.59
2018-05-14T02:06:39.995Z,15.59
2018-05-14T02:08:18.986Z,15.50
2018-05-14T02:09:57.421Z,15.50
2018-05-14T02:11:35.699Z,15.51
2018-05-14T02:13:14.445Z,15.56
2018-05-14T02:14:53.627Z,15.62
2018-05-14T02:16:31.518Z,15.58
2018-05-14T02:18:10.193Z,15.54
2018-05-14T02:19:47.798Z,15.57
2018-05-14T02:21:26.155Z,15.61
2018-05-14T02:23:03.000Z,15.60
2018-05-14T02:24:42.235Z,15.63
2018-05-14T02:26:19.290Z,15.63
2018-05-14T02:27:57.295Z,15.67
2018-05-14T02:29:34.114Z,15.57
2018-05-14T02:31:12.302Z,15.46
2018-05-14T02:32:48.861Z,15.38
2018-05-14T02:34:28.763Z,15.34
2018-05-14T02:36:05.948Z,15.33
2018-05-14T02:37:43.907Z,15.28
2018-05-14T02:39:22.251Z,15.26
2018-05-14T02:41:00.700Z,15.29
2018-05-14T02:42:37.659Z,15.32
2018-05-14T02:44:15.922Z,15.28
2018-05-14T02:45:56.555Z,15.29
2018-05-14T02:47:37.356Z,15.23
2018-05-14T02:49:16.471Z,15.26
2018-05-14T02:50:56.642Z,15.21
2018-05-14T02:52:35.443Z,15.20
2018-05-14T02:54:14.049Z,15.23
2018-05-14T02:55:50.348Z,15.22
2018-05-14T02:57:29.545Z,15.19
2018-05-14T02:59:06.611Z,15.17
2018-05-14T03:00:48.765Z,15.20
2018-05-14T03:02:25.920Z,15.07
2018-05-14T03:04:03.641Z,14.95
2018-05-14T03:05:42.997Z,14.85
2018-05-14T03:07:22.943Z,14.75
2018-05-14T03:08:59.316Z,14.69
2018-05-14T03:10:37.720Z,14.73
2018-05-14T03:12:15.890Z,14.80
2018-05-14T03:13:54.997Z,14.73
2018-05-14T03:15:33.352Z,14.72
2018-05-14T03:17:10.845Z,14.78
2018-05-14T03:18:47.751Z,14.73
2018-05-14T03:20:30.049Z,14.64
2018-05-14T03:22:10.040Z,14.61
2018-05-14T03:23:50.359Z,14.56
2018-05-14T03:25:28.155Z,14.55
2018-05-14T03:27:05.751Z,14.54
2018-05-14T03:28:42.917Z,14.54
2018-05-14T03:30:20.352Z,14.51
2018-05-14T03:31:58.460Z,14.44
2018-05-14T03:33:37.433Z,14.48
2018-05-14T03:35:15.811Z,14.50
2018-05-14T03:36:53.136Z,14.53
2018-05-14T03:38:31.863Z,14.56
2018-05-14T03:40:11.356Z,14.61
2018-05-14T03:41:49.225Z,14.61
2018-05-14T03:43:27.085Z,14.56
2018-05-14T03:46:44.236Z,14.54
2018-05-14T03:48:23.808Z,14.53
2018-05-14T03:50:01.887Z,14.54
2018-05-14T03:51:40.104Z,14.54
2018-05-14T03:53:20.787Z,14.63
2018-05-14T03:54:59.468Z,14.62
2018-05-14T03:56:36.336Z,14.59
2018-05-14T03:58:31.668Z,14.64
2018-05-14T04:00:26.029Z,14.64
2018-05-14T04:02:30.273Z,14.72
2018-05-14T04:06:26.966Z,14.73
2018-05-14T04:08:04.499Z,15.02
2018-05-14T04:09:43.516Z,16.02
2018-05-14T04:11:25.261Z,16.69
2018-05-14T04:13:03.328Z,16.87
2018-05-14T04:14:41.527Z,16.67
2018-05-14T04:16:18.855Z,16.50
2018-05-14T04:17:57.085Z,16.66
2018-05-14T04:19:38.727Z,16.89
2018-05-14T04:21:17.405Z,16.80
2018-05-14T04:22:53.430Z,16.64
2018-05-14T04:24:31.675Z,16.48
2018-05-14T04:26:09.134Z,16.48
2018-05-14T04:27:47.400Z,17.07
2018-05-14T04:29:25.854Z,17.45
2018-05-14T04:31:04.623Z,17.57
2018-05-14T04:32:43.269Z,17.74
2018-05-14T04:34:20.697Z,17.66
2018-05-14T04:35:56.212Z,17.59
2018-05-14T04:37:35.307Z,17.54
2018-05-14T04:39:12.104Z,17.78
2018-05-14T04:40:55.599Z,17.81
2018-05-14T04:42:35.510Z,17.74
2018-05-14T04:44:12.039Z,17.71
2018-05-14T04:45:50.580Z,17.68
2018-05-14T04:47:30.656Z,17.56
2018-05-14T04:49:09.254Z,17.70
2018-05-14T04:50:46.540Z,17.75
2018-05-14T04:52:24.895Z,17.80
2018-05-14T04:54:00.901Z,17.57
2018-05-14T04:55:41.106Z,17.30
2018-05-14T04:57:21.819Z,17.15
2018-05-14T04:58:59.777Z,17.15
2018-05-14T05:00:36.491Z,17.27
2018-05-14T05:02:13.510Z,17.14
2018-05-14T05:03:50.575Z,17.23
2018-05-14T05:05:27.582Z,17.24
2018-05-14T05:07:07.167Z,17.18
2018-05-14T05:08:47.812Z,17.18
2018-05-14T05:10:26.971Z,17.09
2018-05-14T05:12:05.677Z,17.04
2018-05-14T05:13:44.768Z,17.09
2018-05-14T05:15:23.391Z,17.03
2018-05-14T05:17:03.248Z,17.04
2018-05-14T05:18:42.435Z,17.04
2018-05-14T05:20:20.420Z,17.07
2018-05-14T05:21:56.913Z,17.10
2018-05-14T05:23:34.111Z,17.05
2018-05-14T05:25:09.906Z,17.06
2018-05-14T05:26:45.094Z,16.99
2018-05-14T05:28:20.170Z,17.06
2018-05-14T05:29:58.444Z,17.07
2018-05-14T05:31:36.038Z,17.06
2018-05-14T05:33:13.071Z,17.07
2018-05-14T05:34:50.655Z,16.98
2018-05-14T05:36:30.329Z,17.00
2018-05-14T05:38:09.704Z,16.99
2018-05-14T05:39:47.930Z,17.03
2018-05-14T05:41:25.897Z,17.07
2018-05-14T05:43:03.628Z,17.12
2018-05-14T05:44:40.793Z,17.10
2018-05-14T05:46:21.941Z,17.09
2018-05-14T05:47:58.369Z,17.11
2018-05-14T05:49:35.807Z,17.09
2018-05-14T05:51:12.500Z,17.09
2018-05-14T05:52:52.788Z,17.16
2018-05-14T05:54:30.165Z,17.29
2018-05-14T05:56:07.015Z,17.34
2018-05-14T05:57:46.301Z,17.34
2018-05-14T05:59:23.941Z,17.39
2018-05-14T06:01:02.247Z,17.42
2018-05-14T06:02:37.773Z,17.46
2018-05-14T06:04:14.485Z,17.50
2018-05-14T06:05:51.878Z,17.54
2018-05-14T06:07:29.774Z,17.63
2018-05-14T06:09:07.667Z,17.70
2018-05-14T06:10:45.531Z,17.78
2018-05-14T06:12:25.177Z,17.84
2018-05-14T06:14:05.009Z,17.92
2018-05-14T06:15:45.076Z,18.01
2018-05-14T06:17:22.905Z,18.03
2018-05-14T06:19:02.020Z,18.06
2018-05-14T06:20:38.083Z,18.13
2018-05-14T06:22:15.962Z,18.21
2018-05-14T06:23:53.026Z,18.31
2018-05-14T06:25:31.051Z,18.30
2018-05-14T06:27:09.002Z,18.33
2018-05-14T06:28:46.283Z,18.36
2018-05-14T06:30:23.998Z,18.46
2018-05-14T06:32:02.215Z,18.50
2018-05-14T06:33:42.119Z,18.53
2018-05-14T06:35:18.535Z,18.57
2018-05-14T06:36:55.444Z,18.65
2018-05-14T06:38:32.112Z,18.66
2018-05-14T06:40:08.699Z,18.74
2018-05-14T06:41:45.989Z,18.78
2018-05-14T06:43:23.264Z,18.89
2018-05-14T06:45:00.358Z,18.89
2018-05-14T06:46:36.880Z,18.94
2018-05-14T06:48:15.524Z,19.00
2018-05-14T06:49:54.132Z,19.09
2018-05-14T06:51:31.668Z,19.15
2018-05-14T06:53:08.356Z,19.10
2018-05-14T06:54:47.426Z,19.17
2018-05-14T06:56:24.898Z,19.33
2018-05-14T06:58:02.475Z,19.38
2018-05-14T06:59:41.147Z,19.39
2018-05-14T07:01:19.267Z,19.35
2018-05-14T07:02:57.461Z,19.43
2018-05-14T07:04:36.127Z,19.39
2018-05-14T07:06:14.841Z,19.54
2018-05-14T07:07:52.562Z,19.63
2018-05-14T07:09:31.132Z,19.70
2018-05-14T07:11:09.723Z,19.75
2018-05-14T07:12:45.648Z,19.67
2018-05-14T07:14:23.169Z,19.70
2018-05-14T07:16:03.066Z,19.68
2018-05-14T07:17:40.873Z,19.67
2018-05-14T07:19:17.648Z,19.63
2018-05-14T07:20:56.750Z,19.69
2018-05-14T07:22:35.436Z,19.76
2018-05-14T07:24:13.069Z,19.83
2018-05-14T07:25:49.871Z,19.89
2018-05-14T07:27:27.304Z,19.95
2018-05-14T07:29:06.372Z,19.96
2018-05-14T07:30:44.841Z,20.09
2018-05-14T07:32:22.032Z,20.10
2018-05-14T07:34:00.303Z,20.06
2018-05-14T07:35:36.108Z,20.11
2018-05-14T07:37:14.526Z,20.24
2018-05-14T07:38:53.245Z,20.29
2018-05-14T07:40:31.110Z,20.30
2018-05-14T07:42:07.881Z,20.30
2018-05-14T07:43:46.304Z,20.29
2018-05-14T07:45:24.318Z,20.33
2018-05-14T07:47:01.942Z,20.38
2018-05-14T07:48:37.005Z,20.56
2018-05-14T07:50:13.981Z,20.61
2018-05-14T07:51:56.172Z,20.72
2018-05-14T07:53:33.426Z,20.80
2018-05-14T07:55:11.389Z,20.90
2018-05-14T07:56:49.622Z,20.98
2018-05-14T07:58:28.041Z,20.95
2018-05-14T08:00:06.079Z,20.99
2018-05-14T08:01:44.846Z,21.07
2018-05-14T08:03:22.848Z,21.17
2018-05-14T08:04:59.340Z,21.38
2018-05-14T08:06:37.679Z,21.41
2018-05-14T08:08:13.939Z,21.38
2018-05-14T08:09:51.028Z,21.34
2018-05-14T08:11:28.868Z,21.37
2018-05-14T08:13:08.398Z,21.42
2018-05-14T08:14:48.435Z,21.44
2018-05-14T08:16:26.684Z,21.48
2018-05-14T08:18:04.766Z,21.48
2018-05-14T08:19:42.914Z,21.51
2018-05-14T08:21:19.213Z,21.55
2018-05-14T08:22:55.256Z,21.64
2018-05-14T08:24:32.862Z,21.72
2018-05-14T08:26:12.237Z,21.82
2018-05-14T08:27:49.884Z,21.89
2018-05-14T08:29:27.764Z,21.90
2018-05-14T08:31:06.612Z,22.00
2018-05-14T08:32:43.651Z,22.02
2018-05-14T08:34:20.346Z,22.03
2018-05-14T08:35:57.135Z,22.15
2018-05-14T08:37:36.393Z,22.25
2018-05-14T08:39:13.847Z,22.34
2018-05-14T08:40:49.662Z,22.34
2018-05-14T08:42:28.515Z,22.42
2018-05-14T08:44:06.170Z,22.38
2018-05-14T08:45:42.516Z,22.44
2018-05-14T08:47:22.155Z,22.48
2018-05-14T08:49:00.414Z,22.53
2018-05-14T08:50:36.572Z,22.63
2018-05-14T08:52:15.265Z,22.57
2018-05-14T08:53:53.835Z,22.71
2018-05-14T08:55:32.318Z,22.88
2018-05-14T08:57:09.069Z,22.94
2018-05-14T08:58:46.685Z,22.93
2018-05-14T09:00:22.961Z,22.91
2018-05-14T09:02:00.136Z,23.02
2018-05-14T09:03:38.250Z,23.04
2018-05-14T09:05:15.800Z,23.10
2018-05-14T09:06:55.471Z,22.97
2018-05-14T09:08:34.842Z,23.05
2018-05-14T09:10:14.611Z,23.16
2018-05-14T09:11:59.007Z,23.31
2018-05-14T09:13:38.884Z,23.22
2018-05-14T09:15:15.558Z,23.22
2018-05-14T09:16:52.937Z,23.26
2018-05-14T09:18:32.164Z,23.14
2018-05-14T09:20:08.258Z,23.19
2018-05-14T09:21:45.378Z,23.22
2018-05-14T09:23:23.550Z,23.32
2018-05-14T09:25:01.263Z,23.35
2018-05-14T09:26:39.732Z,23.36
2018-05-14T09:28:15.678Z,23.41
2018-05-14T09:29:56.093Z,23.42
2018-05-14T09:31:34.361Z,23.40
2018-05-14T09:33:13.439Z,23.40
2018-05-14T09:34:53.033Z,23.49
2018-05-14T09:36:30.659Z,23.53
2018-05-14T09:38:07.267Z,23.55
2018-05-14T09:39:44.381Z,23.58
2018-05-14T09:41:20.267Z,23.59
2018-05-14T09:42:59.433Z,23.72
2018-05-14T09:44:36.821Z,23.78
2018-05-14T09:46:15.337Z,23.79
2018-05-14T09:47:53.828Z,23.90
2018-05-14T09:49:30.466Z,23.82
2018-05-14T09:51:07.815Z,23.90
2018-05-14T09:52:43.883Z,23.97
2018-05-14T09:54:21.551Z,24.04
2018-05-14T09:55:59.346Z,24.05
2018-05-14T09:57:37.329Z,24.16
2018-05-14T09:59:14.090Z,24.15
2018-05-14T10:00:52.301Z,24.37
2018-05-14T10:02:30.465Z,24.39
2018-05-14T10:04:07.909Z,24.36
2018-05-14T10:05:43.640Z,24.38
2018-05-14T10:07:21.383Z,24.33
2018-05-14T10:08:59.701Z,24.24
2018-05-14T10:10:42.854Z,24.31
2018-05-14T10:12:21.473Z,24.32
2018-05-14T10:13:58.591Z,24.33
2018-05-14T10:15:38.785Z,24.25
2018-05-14T10:17:16.371Z,24.39
2018-05-14T10:18:54.789Z,24.41
2018-05-14T10:20:33.057Z,24.39
2018-05-14T10:22:13.072Z,24.39
2018-05-14T10:23:50.912Z,24.50
2018-05-14T10:25:28.182Z,24.60
2018-05-14T10:27:05.702Z,24.67
2018-05-14T10:28:44.423Z,24.69
2018-05-14T10:30:22.226Z,24.61
2018-05-14T10:32:01.250Z,24.50
2018-05-14T10:33:37.225Z,24.48
2018-05-14T10:35:13.871Z,24.61
2018-05-14T10:36:51.149Z,24.62
2018-05-14T10:38:28.816Z,24.70
2018-05-14T10:40:04.692Z,24.60
2018-05-14T10:41:44.036Z,24.61
2018-05-14T10:43:21.431Z,24.61
2018-05-14T10:44:58.643Z,24.50
2018-05-14T10:46:36.234Z,24.59
2018-05-14T10:48:14.313Z,24.62
2018-05-14T10:49:50.697Z,24.62
2018-05-14T10:51:27.582Z,24.60
2018-05-14T10:53:03.871Z,24.51
2018-05-14T10:54:39.660Z,24.68
2018-05-14T10:56:16.914Z,24.69
2018-05-14T10:57:54.359Z,24.52
2018-05-14T10:59:32.230Z,24.52
2018-05-14T11:01:11.267Z,24.57
2018-05-14T11:02:49.067Z,24.75
2018-05-14T11:04:27.113Z,24.85
2018-05-14T11:06:07.128Z,24.94
2018-05-14T11:07:45.599Z,24.91
2018-05-14T11:09:24.180Z,24.90
2018-05-14T11:11:02.861Z,24.86
2018-05-14T11:12:40.988Z,24.75
2018-05-14T11:14:19.269Z,24.66
2018-05-14T11:15:55.977Z,24.88
2018-05-14T11:17:33.313Z,24.85
2018-05-14T11:19:10.609Z,24.76
2018-05-14T11:20:48.092Z,24.81
2018-05-14T11:22:26.109Z,24.81
2018-05-14T11:24:05.126Z,24.91
2018-05-14T11:25:41.434Z,24.92
2018-05-14T11:27:17.865Z,24.77
2018-05-14T11:28:56.534Z,24.75
2018-05-14T11:30:32.931Z,24.83
2018-05-14T11:32:11.726Z,24.84
2018-05-14T11:33:50.153Z,24.77
2018-05-14T11:35:30.819Z,24.87
2018-05-14T11:37:08.413Z,24.82
2018-05-14T11:38:45.289Z,24.77
2018-05-14T11:40:26.478Z,24.86
2018-05-14T11:42:04.971Z,25.08
2018-05-14T11:43:44.712Z,24.97
2018-05-14T11:45:22.933Z,24.84
2018-05-14T11:47:01.305Z,24.85
2018-05-14T11:48:36.575Z,25.02
2018-05-14T11:50:13.846Z,24.92
2018-05-14T11:51:49.846Z,24.84
2018-05-14T11:53:26.774Z,24.86
2018-05-14T11:55:03.851Z,24.86
2018-05-14T11:56:41.641Z,24.80
2018-05-14T11:58:21.121Z,24.80
2018-05-14T11:59:59.416Z,24.87
2018-05-14T12:01:37.835Z,24.99
2018-05-14T12:03:16.276Z,24.97
2018-05-14T12:04:53.906Z,24.85
2018-05-14T12:06:31.838Z,24.86
2018-05-14T12:08:11.570Z,24.89
2018-05-14T12:09:51.077Z,24.92
2018-05-14T12:11:29.755Z,24.83
2018-05-14T12:13:08.570Z,24.88
2018-05-14T12:14:49.799Z,24.80
2018-05-14T12:16:28.279Z,24.84
2018-05-14T12:18:16.428Z,25.03
2018-05-14T12:19:54.886Z,25.10
2018-05-14T12:23:27.861Z,25.20
2018-05-14T12:25:06.332Z,25.00
2018-05-14T12:26:45.012Z,25.01
2018-05-14T12:28:25.343Z,25.12
2018-05-14T12:30:10.240Z,25.20
2018-05-14T12:33:40.510Z,25.00
2018-05-14T13:21:37.706Z,24.99
2018-05-14T13:23:15.426Z,24.98
2018-05-14T13:26:46.144Z,25.15
2018-05-14T13:34:20.067Z,24.98
2018-05-14T13:35:57.432Z,25.10
2018-05-14T13:37:35.341Z,25.00
2018-05-14T13:39:12.009Z,25.00
2018-05-14T13:40:50.754Z,25.10
2018-05-14T13:42:30.132Z,25.14
2018-05-14T13:44:08.625Z,25.17
2018-05-14T13:45:45.993Z,25.10
2018-05-14T13:47:25.042Z,25.21
2018-05-14T13:49:03.824Z,25.13
2018-05-14T13:50:43.289Z,25.21
2018-05-14T13:52:28.704Z,25.25
2018-05-14T13:54:08.252Z,25.20
2018-05-14T13:55:46.537Z,25.19
2018-05-14T13:59:08.963Z,25.05
2018-05-14T14:01:00.207Z,25.03
2018-05-14T14:02:38.661Z,25.10
2018-05-14T14:04:41.312Z,25.15
2018-05-14T14:06:18.437Z,24.99
2018-05-14T14:07:55.445Z,24.93
2018-05-14T14:09:37.149Z,24.92
2018-05-14T14:22:59.669Z,24.82
2018-05-14T14:24:47.417Z,24.87
2018-05-14T14:26:32.322Z,24.88
2018-05-14T14:28:14.590Z,24.79
2018-05-14T14:29:51.794Z,24.65
2018-05-14T14:31:28.894Z,24.68
2018-05-14T14:33:09.198Z,24.74
2018-05-14T14:34:47.924Z,24.68
2018-05-14T14:36:26.022Z,24.68
2018-05-14T14:38:05.459Z,24.68
2018-05-14T14:39:44.555Z,24.70
2018-05-14T14:41:23.075Z,24.67
2018-05-14T14:43:01.396Z,24.68
2018-05-14T14:44:38.399Z,24.63
2018-05-14T14:46:13.963Z,24.64
2018-05-14T14:47:49.040Z,24.76
2018-05-14T14:49:26.727Z,24.67
2018-05-14T14:51:05.025Z,24.67
2018-05-14T14:52:43.352Z,24.70
2018-05-14T14:54:20.516Z,24.64
2018-05-14T14:55:58.286Z,24.58
2018-05-14T14:57:37.952Z,24.50
2018-05-14T14:59:16.328Z,24.53
2018-05-14T15:00:55.697Z,24.37
2018-05-14T15:02:33.890Z,24.49
2018-05-14T15:04:10.571Z,24.43
2018-05-14T15:05:48.268Z,24.42
2018-05-14T15:07:25.094Z,24.35
2018-05-14T15:09:01.977Z,24.36
2018-05-14T15:10:40.859Z,24.48
2018-05-14T15:12:17.857Z,24.47
2018-05-14T15:13:55.746Z,24.43
2018-05-14T15:15:34.756Z,24.38
2018-05-14T15:17:16.512Z,24.35
2018-05-14T15:18:56.588Z,24.37
2018-05-14T15:20:33.856Z,24.37
2018-05-14T15:22:11.575Z,24.42
2018-05-14T15:23:48.818Z,24.31
2018-05-14T15:25:27.274Z,24.37
2018-05-14T15:27:05.904Z,24.31
2018-05-14T15:28:44.224Z,24.33
2018-05-14T15:30:22.276Z,24.21
2018-05-14T15:32:01.104Z,24.28
2018-05-14T15:33:38.827Z,24.13
2018-05-14T15:35:20.228Z,24.03
2018-05-14T15:36:58.325Z,24.10
2018-05-14T15:38:35.614Z,24.10
2018-05-14T15:40:12.381Z,24.08
2018-05-14T15:41:50.496Z,24.13
2018-05-14T15:43:26.751Z,24.07
2018-05-14T15:45:06.377Z,24.04
2018-05-14T15:46:45.899Z,24.14
2018-05-14T15:48:23.365Z,24.14
2018-05-14T15:50:02.905Z,24.09
2018-05-14T15:51:40.287Z,23.96
2018-05-14T15:53:17.724Z,23.87
2018-05-14T15:54:55.048Z,23.96
2018-05-14T15:56:34.405Z,23.93
2018-05-14T15:58:15.290Z,23.96
2018-05-14T15:59:53.868Z,23.92
2018-05-14T16:01:31.172Z,24.00
2018-05-14T16:03:07.929Z,24.03
2018-05-14T16:04:44.052Z,24.11
2018-05-14T16:06:22.682Z,24.07
2018-05-14T16:08:00.875Z,24.13
2018-05-14T16:09:36.672Z,24.25
2018-05-14T16:11:13.652Z,24.10
2018-05-14T16:12:50.666Z,23.99
2018-05-14T16:14:30.410Z,23.99
2018-05-14T16:16:10.188Z,24.09
2018-05-14T16:17:47.599Z,24.24
2018-05-14T16:19:26.088Z,24.33
2018-05-14T16:21:04.074Z,24.29
2018-05-14T16:22:42.378Z,24.18
2018-05-14T16:24:26.136Z,24.24
2018-05-14T16:26:04.447Z,24.35
2018-05-14T16:27:42.928Z,24.44
2018-05-14T16:29:20.795Z,24.19
2018-05-14T16:30:58.446Z,24.19
2018-05-14T16:32:37.664Z,24.27
2018-05-14T16:34:13.757Z,24.30
2018-05-14T16:35:50.748Z,24.17
2018-05-14T16:37:30.890Z,24.23
2018-05-14T16:39:10.237Z,24.10
2018-05-14T16:40:46.462Z,23.92
2018-05-14T16:42:26.434Z,23.77
2018-05-14T16:44:16.430Z,23.63
2018-05-14T16:45:54.602Z,23.57
2018-05-14T16:47:32.352Z,23.39
2018-05-14T16:49:11.345Z,23.27
2018-05-14T16:50:46.913Z,23.13
2018-05-14T16:52:25.006Z,22.98
2018-05-14T16:54:04.252Z,22.86
2018-05-14T16:55:42.604Z,22.80
2018-05-14T16:57:19.808Z,22.67
2018-05-14T16:59:01.200Z,22.64
2018-05-14T17:00:40.222Z,22.65
2018-05-14T17:02:17.031Z,22.58
2018-05-14T17:03:55.740Z,22.57
2018-05-14T17:05:34.023Z,22.48
2018-05-14T17:07:12.323Z,22.31
2018-05-14T17:08:51.162Z,22.37
2018-05-14T17:10:30.389Z,22.29
2018-05-14T17:12:10.467Z,22.30
2018-05-14T17:13:51.107Z,22.32
2018-05-14T17:15:28.451Z,22.23
2018-05-14T17:17:08.292Z,22.20
2018-05-14T17:18:47.381Z,22.13
2018-05-14T17:20:23.761Z,22.04
2018-05-14T17:22:01.858Z,22.07
2018-05-14T17:23:38.953Z,22.19
2018-05-14T17:25:17.050Z,22.08
2018-05-14T17:26:53.969Z,22.08
2018-05-14T17:28:31.513Z,22.06
2018-05-14T17:30:10.919Z,21.97
2018-05-14T17:31:47.914Z,21.92
2018-05-14T17:33:25.278Z,21.88
2018-05-14T17:35:01.229Z,21.83
2018-05-14T17:36:39.311Z,21.84
2018-05-14T17:38:16.381Z,21.88
2018-05-14T17:39:55.179Z,21.83
2018-05-14T17:41:33.354Z,21.77
2018-05-14T17:43:14.480Z,21.78
2018-05-14T17:44:51.739Z,21.74
2018-05-14T17:46:28.758Z,21.73
2018-05-14T17:48:08.806Z,21.71
2018-05-14T17:49:48.168Z,21.62
2018-05-14T17:51:26.293Z,21.58
2018-05-14T17:53:01.996Z,21.59
2018-05-14T17:54:38.601Z,21.52
2018-05-14T17:56:16.339Z,21.54
2018-05-14T17:58:18.999Z,21.55
2018-05-14T18:00:01.110Z,21.49
2018-05-14T18:01:39.459Z,21.40
2018-05-14T18:03:24.499Z,21.36
2018-05-14T18:07:10.297Z,21.33
2018-05-14T18:08:55.359Z,21.26
2018-05-14T18:10:33.983Z,21.18
2018-05-14T18:12:10.181Z,21.18
2018-05-14T18:13:46.791Z,21.17
2018-05-14T18:15:25.371Z,21.07
2018-05-14T18:17:05.113Z,21.02
2018-05-14T18:18:45.883Z,20.93
2018-05-14T18:20:31.207Z,20.92
2018-05-14T18:35:00.868Z,20.42
2018-05-14T18:36:41.804Z,20.37
2018-05-14T18:38:21.307Z,20.33
2018-05-14T18:39:58.336Z,20.27
2018-05-14T18:41:36.801Z,20.22
2018-05-14T18:43:14.796Z,20.16
2018-05-14T18:44:53.541Z,20.13
2018-05-14T18:46:30.877Z,20.16
2018-05-14T18:48:10.527Z,20.02
2018-05-14T18:49:47.717Z,20.00
2018-05-14T18:51:25.090Z,19.96
2018-05-14T18:53:02.725Z,19.89
2018-05-14T18:54:41.429Z,19.85
2018-05-14T18:56:22.244Z,19.83
2018-05-14T18:57:59.665Z,19.76
2018-05-14T18:59:36.995Z,19.73
2018-05-14T19:01:19.749Z,19.70
2018-05-14T19:03:02.484Z,19.69
2018-05-14T19:04:47.284Z,19.68
2018-05-14T19:06:30.104Z,19.62
2018-05-14T19:08:12.819Z,19.54
2018-05-14T19:09:52.858Z,19.56
2018-05-14T19:11:41.451Z,19.52
2018-05-14T19:13:28.510Z,19.57
2018-05-14T19:17:09.822Z,19.45
2018-05-14T19:20:33.442Z,19.47
2018-05-14T19:22:22.534Z,19.44
2018-05-14T19:24:13.376Z,19.45
2018-05-14T19:25:54.732Z,19.45
2018-05-14T19:27:39.960Z,19.50
2018-05-14T19:29:23.435Z,19.54
2018-05-14T19:31:02.958Z,19.56
2018-05-14T19:32:42.104Z,19.56
2018-05-14T19:34:27.300Z,19.55
2018-05-14T19:36:08.013Z,19.58
2018-05-14T19:37:46.588Z,19.58
2018-05-14T19:41:43.144Z,19.55
2018-05-14T19:43:18.219Z,19.49
2018-05-14T19:44:53.738Z,19.48
2018-05-14T19:46:29.630Z,19.44
2018-05-14T19:48:06.196Z,19.40
2018-05-14T19:49:41.358Z,19.42
2018-05-14T19:51:16.546Z,19.40
2018-05-14T19:52:51.648Z,19.38
2018-05-14T19:54:28.845Z,19.36
2018-05-14T19:56:06.092Z,19.32
2018-05-14T19:57:42.167Z,19.31
2018-05-14T19:59:18.275Z,19.28
2018-05-14T20:00:55.183Z,19.28
2018-05-14T20:02:31.980Z,19.35
2018-05-14T20:04:07.863Z,19.32
2018-05-14T20:05:44.010Z,19.40
2018-05-14T20:07:19.962Z,19.47
2018-05-14T20:08:55.527Z,19.43
2018-05-14T20:10:31.281Z,19.47
2018-05-14T20:12:07.289Z,19.51
2018-05-14T20:13:42.758Z,19.34
2018-05-14T20:15:17.850Z,19.45
2018-05-14T20:16:52.946Z,19.41
2018-05-14T20:18:28.915Z,19.38
2018-05-14T20:20:06.628Z,19.35
2018-05-14T20:21:41.665Z,19.34
2018-05-14T20:23:18.134Z,19.31
2018-05-14T20:24:54.882Z,19.32
2018-05-14T20:26:30.442Z,19.29
2018-05-14T20:28:05.984Z,19.26
2018-05-14T20:29:41.825Z,19.17
2018-05-14T20:31:16.941Z,19.11
2018-05-14T20:32:52.002Z,19.07
2018-05-14T20:34:27.657Z,19.05
2018-05-14T20:36:03.552Z,19.00
2018-05-14T20:37:39.905Z,18.93
2018-05-14T20:39:15.285Z,18.90
2018-05-14T20:40:50.501Z,18.86
2018-05-14T20:42:25.611Z,18.74
2018-05-14T20:44:00.688Z,18.71
2018-05-14T20:45:36.413Z,18.66
2018-05-14T20:47:13.813Z,18.62
2018-05-14T20:48:55.161Z,18.58
2018-05-14T20:50:30.623Z,18.49
2018-05-14T20:52:05.994Z,18.47
2018-05-14T20:53:41.044Z,18.51
2018-05-14T20:55:16.109Z,18.46
2018-05-14T20:56:52.417Z,18.38
2018-05-14T20:58:27.489Z,18.34
2018-05-14T21:00:03.799Z,18.34
2018-05-14T21:01:38.965Z,18.28
2018-05-14T21:03:14.232Z,18.23
2018-05-14T21:04:49.344Z,18.15
2018-05-14T21:06:24.414Z,18.14
2018-05-14T21:08:01.301Z,18.13
2018-05-14T21:09:36.386Z,18.06
2018-05-14T21:11:11.467Z,18.02
2018-05-14T21:12:46.562Z,17.90
2018-05-14T21:14:22.939Z,17.93
2018-05-14T21:15:58.024Z,17.89
2018-05-14T21:17:34.300Z,17.85
2018-05-14T21:19:09.405Z,17.80
2018-05-14T21:20:45.417Z,17.73
2018-05-14T21:22:20.513Z,17.73
2018-05-14T21:23:55.600Z,17.66
2018-05-14T21:25:31.780Z,17.61
2018-05-14T21:27:06.889Z,17.59
2018-05-14T21:28:42.265Z,17.56
2018-05-14T21:30:17.350Z,17.54
2018-05-14T21:31:52.444Z,17.51
2018-05-14T21:33:27.556Z,17.53
2018-05-14T21:35:03.888Z,17.47
2018-05-14T21:36:39.132Z,17.44
2018-05-14T21:38:14.190Z,17.39
2018-05-14T21:39:49.305Z,17.34
2018-05-14T21:41:24.368Z,17.32
2018-05-14T21:43:00.208Z,17.29
2018-05-14T21:44:35.364Z,17.31
2018-05-14T21:46:10.539Z,17.28
2018-05-14T21:47:45.611Z,17.23
2018-05-14T21:49:20.687Z,17.23
2018-05-14T21:50:56.141Z,17.19
2018-05-14T21:52:31.250Z,17.17
2018-05-14T21:54:06.888Z,17.14
2018-05-14T21:55:41.968Z,17.13
2018-05-14T21:57:17.843Z,17.15
2018-05-14T21:58:53.685Z,17.19
2018-05-14T22:00:28.762Z,17.14
2018-05-14T22:02:05.135Z,17.06
2018-05-14T22:03:40.786Z,17.02
2018-05-14T22:05:16.720Z,16.98
2018-05-14T22:06:56.981Z,16.98
2018-05-14T22:08:32.431Z,16.95
2018-05-14T22:10:07.475Z,16.90
2018-05-14T22:11:42.533Z,16.87
2018-05-14T22:13:17.649Z,16.86
2018-05-14T22:14:52.728Z,16.84
2018-05-14T22:16:28.087Z,16.82
2018-05-14T22:18:05.627Z,16.78
2018-05-14T22:19:41.659Z,16.79
2018-05-14T22:21:17.556Z,16.83
2018-05-14T22:22:54.553Z,16.79
2018-05-14T22:24:29.683Z,16.77
2018-05-14T22:26:05.505Z,16.82
2018-05-14T22:27:40.602Z,16.79
2018-05-14T22:29:15.735Z,16.79
2018-05-14T22:30:51.745Z,16.78
2018-05-14T22:32:27.854Z,16.78
2018-05-14T22:34:04.373Z,16.83
2018-05-14T22:35:40.073Z,16.83
2018-05-14T22:37:15.144Z,16.83
2018-05-14T22:38:50.240Z,16.85
2018-05-14T22:40:25.326Z,16.84
2018-05-14T22:42:02.302Z,16.81